createdAt,value
2019-01-04T00:01:28.192Z,7.90
2019-01-04T00:03:57.496Z,8.27
2019-01-04T00:06:26.296Z,8.03
2019-01-04T00:08:54.806Z,7.70
2019-01-04T00:11:23.768Z,7.37
2019-01-04T00:13:52.306Z,9.67
2019-01-04T00:16:20.866Z,8.23
2019-01-04T00:18:49.351Z,7.70
2019-01-04T00:21:18.174Z,8.90
2019-01-04T00:23:46.930Z,8.80
2019-01-04T00:26:15.534Z,9.10
2019-01-04T00:28:44.154Z,7.90
2019-01-04T00:31:12.643Z,7.47
2019-01-04T00:33:41.325Z,7.97
2019-01-04T00:36:09.873Z,8.17
2019-01-04T00:38:38.308Z,8.13
2019-01-04T00:41:06.923Z,8.03
2019-01-04T00:43:35.412Z,8.33
2019-01-04T00:46:03.861Z,6.73
2019-01-04T00:48:32.475Z,7.57
2019-01-04T00:51:01.019Z,7.53
2019-01-04T00:53:29.584Z,7.63
2019-01-04T00:56:10.441Z,8.27
2019-01-04T00:58:45.126Z,6.80
2019-01-04T01:01:25.321Z,7.10
2019-01-04T01:04:22.517Z,7.80
2019-01-04T01:06:56.760Z,8.07
2019-01-04T01:09:58.837Z,8.80
2019-01-04T01:13:04.051Z,8.63
2019-01-04T01:15:54.171Z,7.90
2019-01-04T01:18:40.655Z,8.03
2019-01-04T01:21:44.373Z,8.03
2019-01-04T01:24:31.362Z,8.60
2019-01-04T01:27:09.275Z,8.20
2019-01-04T01:30:10.107Z,7.90
2019-01-04T01:32:59.726Z,10.33
2019-01-04T01:35:31.507Z,10.53
2019-01-04T01:38:12.149Z,9.07
2019-01-04T01:40:55.961Z,7.37
2019-01-04T01:43:47.250Z,6.67
2019-01-04T01:46:28.259Z,7.00
2019-01-04T01:49:16.909Z,7.90
2019-01-04T01:51:54.566Z,6.53
2019-01-04T01:54:23.092Z,7.00
2019-01-04T01:56:51.780Z,7.50
2019-01-04T01:59:20.296Z,7.10
2019-01-04T02:01:48.794Z,6.90
2019-01-04T02:04:17.426Z,7.03
2019-01-04T02:06:46.053Z,7.20
2019-01-04T02:09:14.580Z,7.80
2019-01-04T02:11:43.164Z,6.83
2019-01-04T02:14:11.719Z,9.03
2019-01-04T02:16:40.181Z,8.60
2019-01-04T02:19:09.743Z,7.70
2019-01-04T02:21:39.427Z,7.40
2019-01-04T02:24:08.771Z,8.43
2019-01-04T02:26:39.761Z,9.87
2019-01-04T02:29:09.741Z,9.13
2019-01-04T02:31:39.354Z,9.37
2019-01-04T02:34:07.926Z,9.07
2019-01-04T02:36:36.520Z,9.33
2019-01-04T02:39:06.536Z,9.13
2019-01-04T02:41:35.094Z,7.80
2019-01-04T02:44:03.587Z,7.27
2019-01-04T02:46:32.041Z,7.27
2019-01-04T02:49:00.637Z,7.47
2019-01-04T02:51:29.082Z,7.20
2019-01-04T02:53:57.681Z,7.17
2019-01-04T02:56:26.250Z,6.53
2019-01-04T02:58:55.001Z,6.00
2019-01-04T03:01:23.600Z,6.73
2019-01-04T03:03:52.030Z,6.17
2019-01-04T03:06:20.682Z,6.13
2019-01-04T03:08:49.236Z,6.50
2019-01-04T03:11:17.702Z,5.83
2019-01-04T03:13:46.182Z,5.73
2019-01-04T03:16:14.839Z,6.53
2019-01-04T03:18:43.355Z,5.93
2019-01-04T03:21:11.879Z,5.80
2019-01-04T03:23:40.387Z,5.67
2019-01-04T03:26:08.931Z,6.73
2019-01-04T03:28:37.592Z,6.63
2019-01-04T03:31:06.145Z,6.43
2019-01-04T03:33:34.668Z,6.20
2019-01-04T03:36:03.354Z,5.73
2019-01-04T03:38:31.798Z,6.07
2019-01-04T03:41:00.320Z,5.93
2019-01-04T03:43:28.924Z,5.67
2019-01-04T03:45:57.391Z,5.60
2019-01-04T03:48:26.040Z,6.27
2019-01-04T03:50:54.567Z,5.97
2019-01-04T03:53:23.053Z,5.83
2019-01-04T03:55:51.497Z,6.47
2019-01-04T03:58:20.020Z,6.73
2019-01-04T04:00:48.532Z,5.90
2019-01-04T04:03:17.123Z,5.80
2019-01-04T04:05:45.644Z,7.40
2019-01-04T04:08:14.189Z,8.20
2019-01-04T04:10:42.720Z,7.13
2019-01-04T04:13:11.230Z,6.77
2019-01-04T04:15:39.681Z,7.57
2019-01-04T04:18:08.134Z,6.87
2019-01-04T04:20:36.720Z,6.70
2019-01-04T04:23:05.315Z,8.30
2019-01-04T04:25:33.907Z,8.53
2019-01-04T04:28:02.386Z,8.50
2019-01-04T04:30:30.853Z,9.03
2019-01-04T04:32:59.308Z,7.70
2019-01-04T04:35:27.837Z,7.00
2019-01-04T04:37:56.354Z,7.40
2019-01-04T04:40:24.927Z,7.77
2019-01-04T04:42:53.524Z,7.17
2019-01-04T04:45:21.926Z,7.63
2019-01-04T04:47:50.400Z,7.77
2019-01-04T04:50:21.827Z,7.80
2019-01-04T04:52:50.352Z,7.20
2019-01-04T04:55:18.860Z,6.80
2019-01-04T04:57:47.374Z,6.30
2019-01-04T05:00:15.842Z,6.73
2019-01-04T05:02:44.519Z,6.33
2019-01-04T05:05:13.101Z,6.53
2019-01-04T05:07:41.833Z,6.47
2019-01-04T05:10:10.341Z,6.57
2019-01-04T05:12:38.850Z,6.33
2019-01-04T05:15:07.378Z,5.40
2019-01-04T05:17:35.937Z,5.67
2019-01-04T05:20:04.703Z,5.43
2019-01-04T05:22:33.194Z,5.03
2019-01-04T05:25:01.686Z,5.07
2019-01-04T05:27:30.277Z,5.40
2019-01-04T05:29:58.859Z,4.93
2019-01-04T05:32:27.376Z,5.33
2019-01-04T05:34:55.861Z,4.90
2019-01-04T05:37:24.472Z,5.87
2019-01-04T05:39:53.171Z,6.50
2019-01-04T05:42:21.699Z,5.77
2019-01-04T05:44:50.342Z,6.63
2019-01-04T05:47:18.786Z,5.50
2019-01-04T05:49:47.358Z,6.30
2019-01-04T05:52:15.847Z,5.73
2019-01-04T05:54:44.349Z,5.80
2019-01-04T05:57:12.891Z,6.50
2019-01-04T05:59:41.440Z,6.70
2019-01-04T06:02:09.970Z,7.30
2019-01-04T06:04:38.552Z,6.67
2019-01-04T06:07:07.077Z,7.27
2019-01-04T06:09:35.530Z,7.37
2019-01-04T06:12:04.063Z,7.63
2019-01-04T06:14:32.578Z,8.17
2019-01-04T06:17:01.115Z,8.57
2019-01-04T06:19:29.812Z,8.10
2019-01-04T06:21:58.379Z,8.50
2019-01-04T06:24:26.965Z,7.93
2019-01-04T06:26:55.466Z,9.03
2019-01-04T06:29:23.951Z,8.50
2019-01-04T06:31:52.589Z,9.27
2019-01-04T06:34:21.189Z,9.33
2019-01-04T06:36:49.637Z,9.90
2019-01-04T06:39:18.160Z,8.83
2019-01-04T06:41:46.665Z,9.13
2019-01-04T06:44:15.228Z,8.07
2019-01-04T06:47:12.835Z,8.10
2019-01-04T06:49:41.300Z,7.47
2019-01-04T06:52:09.914Z,7.37
2019-01-04T06:55:15.251Z,7.87
2019-01-04T06:57:43.826Z,7.77
2019-01-04T07:00:12.324Z,6.73
2019-01-04T07:02:40.864Z,7.37
2019-01-04T07:05:09.346Z,7.50
2019-01-04T07:07:37.823Z,9.13
2019-01-04T07:10:08.473Z,11.27
2019-01-04T07:12:37.339Z,9.83
2019-01-04T07:15:06.624Z,10.80
2019-01-04T07:17:35.118Z,10.03
2019-01-04T07:20:04.190Z,14.63
2019-01-04T07:22:32.671Z,13.67
2019-01-04T07:25:01.341Z,16.03
2019-01-04T07:27:29.777Z,11.30
2019-01-04T07:29:58.324Z,10.53
2019-01-04T07:32:26.820Z,10.60
2019-01-04T07:34:55.285Z,10.63
2019-01-04T07:37:23.727Z,10.37
2019-01-04T07:39:52.324Z,11.47
2019-01-04T07:42:20.837Z,14.00
2019-01-04T07:44:49.307Z,18.97
2019-01-04T07:47:17.911Z,14.97
2019-01-04T07:49:46.605Z,13.00
2019-01-04T07:52:15.137Z,12.77
2019-01-04T07:54:43.837Z,13.00
2019-01-04T07:57:12.322Z,12.70
2019-01-04T07:59:40.807Z,11.63
2019-01-04T08:02:29.357Z,9.87
2019-01-04T08:04:57.947Z,11.00
2019-01-04T08:07:26.519Z,12.07
2019-01-04T08:09:55.167Z,10.83
2019-01-04T08:12:23.682Z,11.97
2019-01-04T08:14:52.130Z,11.67
2019-01-04T08:17:20.698Z,11.00
2019-01-04T08:19:49.321Z,10.57
2019-01-04T08:22:17.873Z,10.27
2019-01-04T08:24:46.678Z,10.73
2019-01-04T08:27:15.281Z,9.87
2019-01-04T08:29:43.730Z,10.93
2019-01-04T08:32:12.347Z,9.30
2019-01-04T08:34:40.803Z,8.63
2019-01-04T08:37:09.282Z,8.10
2019-01-04T08:39:37.798Z,7.67
2019-01-04T08:42:06.287Z,7.63
2019-01-04T08:44:34.799Z,8.27
2019-01-04T08:47:03.406Z,10.07
2019-01-04T08:49:31.883Z,8.30
2019-01-04T08:52:00.527Z,8.33
2019-01-04T08:54:29.036Z,8.97
2019-01-04T08:56:57.858Z,8.67
2019-01-04T08:59:26.409Z,7.60
2019-01-04T09:01:55.138Z,7.13
2019-01-04T09:04:23.789Z,7.30
2019-01-04T09:06:52.409Z,6.73
2019-01-04T09:09:21.179Z,7.30
2019-01-04T09:11:49.746Z,7.03
2019-01-04T09:14:18.278Z,6.60
2019-01-04T09:16:46.855Z,5.70
2019-01-04T09:19:15.308Z,6.27
2019-01-04T09:21:43.789Z,6.70
2019-01-04T09:24:12.300Z,5.90
2019-01-04T09:26:40.919Z,5.53
2019-01-04T09:29:09.671Z,6.30
2019-01-04T09:31:38.223Z,6.37
2019-01-04T09:34:06.771Z,5.67
2019-01-04T09:36:35.347Z,7.07
2019-01-04T09:39:05.766Z,6.60
2019-01-04T09:41:36.223Z,6.77
2019-01-04T09:44:04.864Z,7.07
2019-01-04T09:46:33.428Z,7.60
2019-01-04T09:49:01.962Z,6.87
2019-01-04T09:51:30.586Z,7.30
2019-01-04T09:53:59.199Z,6.80
2019-01-04T09:56:27.721Z,7.00
2019-01-04T09:58:56.118Z,6.40
2019-01-04T10:01:24.683Z,6.57
2019-01-04T10:03:53.174Z,6.87
2019-01-04T10:06:21.624Z,5.90
2019-01-04T10:08:50.226Z,6.23
2019-01-04T10:11:18.744Z,5.53
2019-01-04T10:13:47.337Z,6.10
2019-01-04T10:16:15.856Z,5.90
2019-01-04T10:18:44.482Z,5.50
2019-01-04T10:21:15.877Z,4.67
2019-01-04T10:23:44.411Z,5.00
2019-01-04T10:26:13.015Z,5.60
2019-01-04T10:28:41.443Z,5.37
2019-01-04T10:31:10.021Z,5.97
2019-01-04T10:33:38.486Z,6.60
2019-01-04T10:36:06.999Z,5.90
2019-01-04T10:38:35.571Z,5.50
2019-01-04T10:41:04.047Z,5.83
2019-01-04T10:43:32.663Z,6.50
2019-01-04T10:46:01.146Z,7.83
2019-01-04T10:48:29.728Z,6.87
2019-01-04T10:50:58.298Z,6.23
2019-01-04T10:53:26.998Z,6.20
2019-01-04T10:55:55.567Z,6.80
2019-01-04T10:58:24.095Z,6.13
2019-01-04T11:00:52.597Z,7.80
2019-01-04T11:03:21.182Z,6.20
2019-01-04T11:05:49.562Z,6.93
2019-01-04T11:08:18.152Z,6.37
2019-01-04T11:10:46.671Z,6.50
2019-01-04T11:13:15.284Z,6.20
2019-01-04T11:15:43.974Z,5.43
2019-01-04T11:18:12.437Z,5.87
2019-01-04T11:20:42.833Z,6.60
2019-01-04T11:23:41.288Z,4.87
2019-01-04T11:26:12.953Z,6.00
2019-01-04T11:28:59.478Z,6.30
2019-01-04T11:31:39.919Z,5.80
2019-01-04T11:34:17.411Z,6.50
2019-01-04T11:36:51.724Z,12.50
2019-01-04T11:39:52.204Z,17.47
2019-01-04T11:42:29.904Z,16.40
2019-01-04T11:45:01.849Z,14.13
2019-01-04T11:47:36.207Z,30.10
2019-01-04T11:50:10.664Z,32.37
2019-01-04T11:52:42.680Z,24.53
2019-01-04T11:55:11.197Z,23.57
2019-01-04T11:57:40.739Z,36.57
2019-01-04T12:00:11.051Z,13.50
2019-01-04T12:02:39.555Z,18.33
2019-01-04T12:05:10.642Z,25.00
2019-01-04T12:07:39.142Z,17.80
2019-01-04T12:10:07.757Z,14.13
2019-01-04T12:12:36.319Z,11.13
2019-01-04T12:15:06.397Z,12.40
2019-01-04T12:17:34.976Z,16.23
2019-01-04T12:20:03.946Z,12.30
2019-01-04T12:22:32.354Z,27.60
2019-01-04T12:25:00.884Z,18.27
2019-01-04T12:27:29.481Z,11.47
2019-01-04T12:29:57.962Z,17.97
2019-01-04T12:32:26.572Z,20.53
2019-01-04T12:34:55.095Z,26.20
2019-01-04T12:37:23.817Z,14.50
2019-01-04T12:39:52.486Z,16.57
2019-01-04T12:42:21.018Z,26.13
2019-01-04T12:44:49.562Z,18.23
2019-01-04T12:47:18.598Z,19.80
2019-01-04T12:49:47.231Z,20.47
2019-01-04T12:52:15.708Z,19.07
2019-01-04T12:54:44.169Z,19.50
2019-01-04T12:57:12.661Z,18.47
2019-01-04T12:59:41.173Z,19.33
2019-01-04T13:02:09.632Z,16.80
2019-01-04T13:04:38.234Z,16.57
2019-01-04T13:07:06.833Z,18.17
2019-01-04T13:09:35.234Z,16.87
2019-01-04T13:12:03.773Z,14.57
2019-01-04T13:14:33.855Z,16.37
2019-01-04T13:17:02.361Z,13.87
2019-01-04T13:19:30.877Z,14.57
2019-01-04T13:21:59.352Z,14.50
2019-01-04T13:24:27.807Z,16.23
2019-01-04T13:26:56.399Z,16.33
2019-01-04T13:29:24.849Z,21.27
2019-01-04T13:31:53.402Z,17.03
2019-01-04T13:34:22.058Z,22.63
2019-01-04T13:36:50.703Z,24.20
2019-01-04T13:39:19.360Z,57.70
2019-01-04T13:41:47.880Z,44.47
2019-01-04T13:44:16.479Z,26.37
2019-01-04T13:46:45.070Z,20.57
2019-01-04T13:49:13.581Z,16.53
2019-01-04T13:51:42.122Z,18.43
2019-01-04T13:54:10.589Z,18.50
2019-01-04T13:56:39.097Z,20.13
2019-01-04T13:59:07.770Z,18.50
2019-01-04T14:01:36.256Z,19.30
2019-01-04T14:04:04.903Z,19.90
2019-01-04T14:06:33.862Z,18.17
2019-01-04T14:09:02.552Z,18.10
2019-01-04T14:11:31.282Z,20.53
2019-01-04T14:14:00.496Z,17.27
2019-01-04T14:16:28.955Z,19.00
2019-01-04T14:18:57.395Z,21.23
2019-01-04T14:21:26.017Z,19.13
2019-01-04T14:23:54.539Z,20.07
2019-01-04T14:26:23.373Z,17.30
2019-01-04T14:28:51.940Z,17.53
2019-01-04T14:31:20.434Z,15.67
2019-01-04T14:33:49.064Z,14.97
2019-01-04T14:36:17.674Z,14.13
2019-01-04T14:38:46.259Z,12.50
2019-01-04T14:41:14.822Z,13.20
2019-01-04T14:43:43.280Z,13.30
2019-01-04T14:46:12.014Z,14.00
2019-01-04T14:48:40.528Z,13.90
2019-01-04T14:51:09.284Z,15.83
2019-01-04T14:53:37.754Z,16.50
2019-01-04T14:56:06.510Z,17.03
2019-01-04T14:58:35.035Z,16.40
2019-01-04T15:01:04.066Z,16.80
2019-01-04T15:03:33.047Z,17.23
2019-01-04T15:06:02.133Z,15.87
2019-01-04T15:08:30.669Z,15.13
2019-01-04T15:10:59.391Z,15.93
2019-01-04T15:13:28.125Z,14.87
2019-01-04T15:15:56.831Z,15.53
2019-01-04T15:18:25.333Z,15.73
2019-01-04T15:20:53.977Z,16.10
2019-01-04T15:23:22.658Z,15.50
2019-01-04T15:25:51.449Z,15.90
2019-01-04T15:28:20.064Z,16.90
2019-01-04T15:30:48.737Z,17.27
2019-01-04T15:33:17.379Z,16.97
2019-01-04T15:35:45.901Z,16.57
2019-01-04T15:38:14.459Z,17.23
2019-01-04T15:40:43.192Z,18.27
2019-01-04T15:43:11.648Z,18.67
2019-01-04T15:45:40.248Z,19.17
2019-01-04T15:48:08.943Z,19.53
2019-01-04T15:50:37.686Z,20.63
2019-01-04T15:53:06.299Z,19.43
2019-01-04T15:55:35.026Z,19.93
2019-01-04T15:58:03.819Z,19.60
2019-01-04T16:00:32.785Z,20.40
2019-01-04T16:03:01.603Z,23.00
2019-01-04T16:05:30.143Z,20.70
2019-01-04T16:07:58.716Z,22.43
2019-01-04T16:10:27.429Z,22.23
2019-01-04T16:12:57.486Z,22.40
2019-01-04T16:15:26.369Z,22.73
2019-01-04T16:17:55.230Z,22.13
2019-01-04T16:20:23.848Z,21.67
2019-01-04T16:22:52.513Z,22.87
2019-01-04T16:25:21.504Z,18.23
2019-01-04T16:27:50.181Z,17.47
2019-01-04T16:30:19.412Z,16.63
2019-01-04T16:32:48.332Z,16.77
2019-01-04T16:35:16.850Z,16.03
2019-01-04T16:37:45.365Z,15.47
2019-01-04T16:40:14.782Z,14.43
2019-01-04T16:42:43.712Z,13.83
2019-01-04T16:45:12.290Z,13.23
2019-01-04T16:47:40.906Z,13.47
2019-01-04T16:50:09.650Z,12.30
2019-01-04T16:52:38.127Z,12.67
2019-01-04T16:55:08.328Z,13.47
2019-01-04T16:57:37.027Z,12.10
2019-01-04T17:00:09.329Z,12.37
2019-01-04T17:02:37.975Z,11.73
2019-01-04T17:05:06.846Z,11.97
2019-01-04T17:07:38.591Z,12.67
2019-01-04T17:10:08.697Z,12.13
2019-01-04T17:12:38.291Z,11.87
2019-01-04T17:15:07.624Z,12.13
2019-01-04T17:17:36.233Z,10.80
2019-01-04T17:20:05.524Z,11.57
2019-01-04T17:22:34.973Z,12.13
2019-01-04T17:25:03.745Z,12.50
2019-01-04T17:27:32.470Z,12.03
2019-01-04T17:30:01.276Z,12.20
2019-01-04T17:32:30.289Z,11.70
2019-01-04T17:34:58.898Z,11.00
2019-01-04T17:37:27.527Z,10.87
2019-01-04T17:39:56.272Z,11.17
2019-01-04T17:42:24.838Z,9.97
2019-01-04T17:44:53.492Z,10.30
2019-01-04T17:47:22.091Z,9.77
2019-01-04T17:49:50.504Z,10.00
2019-01-04T17:52:19.067Z,9.93
2019-01-04T17:54:47.735Z,9.67
2019-01-04T17:57:16.321Z,9.30
2019-01-04T17:59:44.880Z,9.50
2019-01-04T18:02:13.566Z,9.23
2019-01-04T18:04:42.261Z,8.73
2019-01-04T18:07:10.942Z,8.67
2019-01-04T18:09:39.452Z,9.17
2019-01-04T18:12:08.032Z,8.33
2019-01-04T18:14:36.577Z,8.70
2019-01-04T18:17:05.113Z,9.00
2019-01-04T18:19:33.583Z,9.10
2019-01-04T18:22:02.064Z,8.57
2019-01-04T18:24:30.718Z,9.20
2019-01-04T18:26:59.338Z,9.23
2019-01-04T18:29:27.877Z,9.43
2019-01-04T18:31:56.377Z,8.40
2019-01-04T18:34:24.852Z,8.80
2019-01-04T18:36:53.329Z,8.37
2019-01-04T18:39:21.912Z,8.43
2019-01-04T18:41:50.983Z,8.40
2019-01-04T18:44:19.539Z,8.07
2019-01-04T18:46:48.484Z,8.10
2019-01-04T18:49:17.047Z,8.70
2019-01-04T18:51:45.478Z,7.27
2019-01-04T18:54:14.198Z,7.83
2019-01-04T18:56:42.890Z,7.67
2019-01-04T18:59:12.466Z,9.20
2019-01-04T19:01:41.545Z,8.10
2019-01-04T19:04:10.292Z,8.23
2019-01-04T19:06:39.319Z,8.53
2019-01-04T19:09:08.037Z,9.13
2019-01-04T19:11:36.596Z,8.60
2019-01-04T19:14:04.983Z,8.27
2019-01-04T19:16:33.576Z,8.53
2019-01-04T19:19:02.043Z,9.23
2019-01-04T19:21:30.640Z,9.73
2019-01-04T19:23:59.584Z,8.93
2019-01-04T19:26:28.035Z,9.00
2019-01-04T19:28:56.518Z,9.17
2019-01-04T19:31:25.162Z,10.30
2019-01-04T19:33:53.770Z,9.13
2019-01-04T19:36:22.318Z,10.43
2019-01-04T19:38:50.989Z,9.77
2019-01-04T19:41:19.601Z,9.50
2019-01-04T19:43:48.099Z,9.57
2019-01-04T19:46:16.702Z,9.83
2019-01-04T19:48:45.169Z,10.63
2019-01-04T19:51:13.684Z,9.53
2019-01-04T19:53:42.292Z,10.30
2019-01-04T19:56:10.698Z,9.77
2019-01-04T19:58:39.241Z,10.57
2019-01-04T20:01:08.250Z,9.70
2019-01-04T20:03:36.724Z,9.80
2019-01-04T20:06:31.314Z,10.03
2019-01-04T20:09:39.328Z,10.23
2019-01-04T20:12:45.754Z,9.40
2019-01-04T20:15:50.505Z,9.50
2019-01-04T20:18:21.570Z,9.47
2019-01-04T20:20:54.695Z,9.47
2019-01-04T20:23:28.575Z,10.03
2019-01-04T20:26:05.074Z,9.87
2019-01-04T20:28:47.690Z,7.93
2019-01-04T20:31:26.716Z,9.73
2019-01-04T20:34:13.157Z,9.10
2019-01-04T20:36:49.585Z,9.77
2019-01-04T20:39:31.661Z,8.70
2019-01-04T20:42:18.114Z,9.37
2019-01-04T20:45:04.816Z,8.83
2019-01-04T20:47:51.162Z,9.47
2019-01-04T20:50:27.271Z,9.40
2019-01-04T20:53:04.032Z,10.00
2019-01-04T20:55:34.332Z,9.07
2019-01-04T20:58:07.655Z,9.83
2019-01-04T21:00:49.792Z,10.00
2019-01-04T21:03:19.918Z,9.77
2019-01-04T21:05:59.267Z,8.93
2019-01-04T21:08:46.078Z,9.57
2019-01-04T21:11:22.236Z,8.67
2019-01-04T21:14:10.792Z,8.30
2019-01-04T21:16:57.370Z,9.57
2019-01-04T21:19:45.907Z,8.90
2019-01-04T21:22:20.627Z,9.00
2019-01-04T21:24:53.693Z,8.63
2019-01-04T21:27:40.377Z,9.03
2019-01-04T21:30:16.348Z,8.23
2019-01-04T21:32:52.588Z,8.13
2019-01-04T21:35:22.753Z,8.70
2019-01-04T21:37:52.961Z,9.00
2019-01-04T21:40:25.997Z,8.43
2019-01-04T21:43:05.579Z,8.60
2019-01-04T21:45:52.575Z,7.70
2019-01-04T21:48:22.744Z,8.57
2019-01-04T21:51:10.312Z,9.57
2019-01-04T21:53:43.194Z,10.50
2019-01-04T21:56:22.613Z,9.67
2019-01-04T21:59:08.687Z,10.13
2019-01-04T22:01:38.871Z,10.47
2019-01-04T22:04:27.159Z,8.73
2019-01-04T22:06:57.412Z,8.80
2019-01-04T22:09:39.622Z,8.43
2019-01-04T22:12:12.485Z,8.80
2019-01-04T22:14:58.623Z,8.50
2019-01-04T22:17:34.715Z,8.80
2019-01-04T22:20:08.415Z,8.47
2019-01-04T22:22:47.841Z,8.90
2019-01-04T22:25:34.107Z,8.97
2019-01-04T22:28:07.273Z,8.80
2019-01-04T22:30:53.453Z,9.20
2019-01-04T22:33:29.551Z,9.00
2019-01-04T22:36:16.390Z,9.00
2019-01-04T22:38:46.899Z,9.60
2019-01-04T22:41:26.539Z,8.87
2019-01-04T22:44:13.089Z,8.67
2019-01-04T22:46:48.792Z,9.27
2019-01-04T22:49:19.147Z,9.20
2019-01-04T22:52:04.688Z,9.80
2019-01-04T22:54:41.325Z,9.70
2019-01-04T22:57:11.480Z,10.10
2019-01-04T22:59:44.778Z,9.53
2019-01-04T23:02:31.570Z,10.20
2019-01-04T23:05:18.369Z,9.63
2019-01-04T23:08:04.598Z,9.73
2019-01-04T23:10:34.726Z,10.70
2019-01-04T23:13:21.374Z,11.73
2019-01-04T23:15:58.011Z,11.07
2019-01-04T23:18:43.364Z,11.03
2019-01-04T23:21:51.136Z,9.77
2019-01-04T23:24:27.731Z,9.40
2019-01-04T23:26:58.188Z,10.63
2019-01-04T23:29:28.458Z,10.00
2019-01-04T23:32:13.456Z,9.93
2019-01-04T23:34:58.854Z,10.00
2019-01-04T23:37:34.903Z,10.53
2019-01-04T23:40:05.391Z,10.93
2019-01-04T23:42:35.509Z,11.10
2019-01-04T23:45:06.149Z,10.87
2019-01-04T23:47:39.207Z,10.80
2019-01-04T23:50:24.544Z,10.80
2019-01-04T23:52:56.396Z,10.70
2019-01-04T23:55:32.386Z,11.23
2019-01-04T23:58:18.838Z,11.43
